Time;durP1;ratioP1;P1;durP2;ratioP2;P2;SDS_P1;SDS_P2;PMS_P1;PMS_P2;Temp;Humidity;BMP_temperature;BMP_pressure;BME280_temperature;BME280_humidity;BME280_pressure;Samples;Min_cycle;Max_cycle;Signal;HPM_P1;HPM_P2
2023/10/14 00:00:39;;;;;;;;;;;19.60;78.40;;;;;;5009286;28;19917;-81
2023/10/14 00:05:48;;;;;;;;;;;19.50;78.30;;;;;;5018600;28;19967;-82
2023/10/14 00:08:14;;;;;;;;;;;19.60;78.00;;;;;;5024160;28;20326;-80
2023/10/14 00:10:39;;;;;;;;;;;19.60;78.00;;;;;;5015495;28;20004;-82
2023/10/14 00:13:10;;;;;;;;;;;19.50;78.30;;;;;;5020424;28;19914;-82
2023/10/14 00:15:36;;;;;;;;;;;19.50;78.40;;;;;;5018947;28;19917;-80
2023/10/14 00:18:01;;;;;;;;;;;19.50;78.60;;;;;;5019835;28;19920;-80
2023/10/14 00:20:34;;;;;;;;;;;19.50;79.80;;;;;;5008487;28;19928;-79
2023/10/14 00:23:00;;;;;;;;;;;19.30;81.60;;;;;;5005857;28;19917;-81
2023/10/14 00:25:25;;;;;;;;;;;19.00;82.70;;;;;;5026033;28;19963;-82
2023/10/14 00:27:51;;;;;;;;;;;18.90;82.90;;;;;;5016291;28;20371;-83
2023/10/14 00:30:19;;;;;;;;;;;18.90;82.90;;;;;;5019887;28;19914;-82
2023/10/14 00:32:45;;;;;;;;;;;18.70;83.00;;;;;;5014597;28;19917;-81
2023/10/14 00:35:18;;;;;;;;;;;18.60;83.10;;;;;;5011888;28;19913;-81
2023/10/14 00:37:43;;;;;;;;;;;18.60;83.10;;;;;;5024237;28;20285;-80
2023/10/14 00:40:21;;;;;;;;;;;18.60;83.00;;;;;;5014148;28;19909;-81
2023/10/14 00:42:47;;;;;;;;;;;18.50;83.20;;;;;;5015813;28;19918;-81
2023/10/14 00:45:12;;;;;;;;;;;18.50;83.40;;;;;;5021441;28;19921;-82
2023/10/14 00:47:43;;;;;;;;;;;18.40;83.80;;;;;;5018142;28;19988;-81
2023/10/14 00:52:54;;;;;;;;;;;18.00;86.10;;;;;;5019108;28;19968;-80
2023/10/14 00:55:24;;;;;;;;;;;17.80;87.10;;;;;;5023057;28;20135;-81
2023/10/14 00:57:54;;;;;;;;;;;17.70;87.70;;;;;;5017786;28;19920;-81
2023/10/14 01:00:33;;;;;;;;;;;17.70;88.30;;;;;;5016404;28;19913;-79
2023/10/14 01:03:01;;;;;;;;;;;17.60;88.80;;;;;;5006893;28;20387;-78
2023/10/14 01:05:29;;;;;;;;;;;17.60;88.40;;;;;;5015202;28;19921;-79
2023/10/14 01:07:58;;;;;;;;;;;17.50;88.70;;;;;;5015689;28;19987;-79
2023/10/14 01:10:24;;;;;;;;;;;17.50;88.20;;;;;;5007150;28;19947;-77
2023/10/14 01:12:54;;;;;;;;;;;17.50;88.30;;;;;;5016433;28;20000;-78
2023/10/14 01:15:20;;;;;;;;;;;17.50;88.50;;;;;;5010460;28;19998;-79
2023/10/14 01:17:46;;;;;;;;;;;17.50;88.50;;;;;;5013343;28;19956;-79
2023/10/14 01:22:44;;;;;;;;;;;17.60;88.30;;;;;;5012083;28;19924;-78
2023/10/14 01:25:15;;;;;;;;;;;17.60;88.50;;;;;;5015300;28;19909;-80
2023/10/14 01:27:43;;;;;;;;;;;17.50;88.70;;;;;;5019856;28;19914;-79
2023/10/14 01:30:18;;;;;;;;;;;17.50;89.00;;;;;;5018004;28;19913;-80
2023/10/14 01:35:31;;;;;;;;;;;17.40;88.30;;;;;;5017993;28;19916;-79
2023/10/14 01:37:58;;;;;;;;;;;16.80;88.00;;;;;;5008315;28;19967;-77
2023/10/14 01:43:05;;;;;;;;;;;15.70;88.50;;;;;;5011415;28;20004;-79
2023/10/14 01:45:31;;;;;;;;;;;15.40;89.80;;;;;;5006769;28;20483;-77
2023/10/14 01:48:12;;;;;;;;;;;15.20;90.10;;;;;;5007765;28;19962;-77
2023/10/14 01:50:38;;;;;;;;;;;15.10;90.60;;;;;;5006841;28;19968;-78
2023/10/14 01:53:17;;;;;;;;;;;15.10;90.30;;;;;;5015499;28;19944;-78
2023/10/14 01:55:43;;;;;;;;;;;14.90;90.40;;;;;;5011611;28;19914;-78
2023/10/14 01:58:12;;;;;;;;;;;14.80;91.00;;;;;;5004935;28;19999;-78
2023/10/14 02:00:39;;;;;;;;;;;14.80;90.80;;;;;;5014398;28;19914;-78
2023/10/14 02:03:07;;;;;;;;;;;14.70;90.70;;;;;;5010655;28;19914;-79
2023/10/14 02:05:39;;;;;;;;;;;14.60;91.10;;;;;;5010771;28;19972;-79
2023/10/14 02:08:13;;;;;;;;;;;14.60;91.30;;;;;;5006310;28;20392;-78
2023/10/14 02:10:38;;;;;;;;;;;14.60;91.90;;;;;;5019259;28;20417;-79
2023/10/14 02:13:04;;;;;;;;;;;14.70;91.40;;;;;;5025214;28;19910;-78
2023/10/14 02:15:29;;;;;;;;;;;14.60;91.40;;;;;;5020522;28;20397;-79
2023/10/14 02:17:54;;;;;;;;;;;14.60;91.60;;;;;;5017773;28;20358;-80
2023/10/14 02:20:20;;;;;;;;;;;14.60;91.30;;;;;;5010950;28;19921;-78
2023/10/14 02:22:49;;;;;;;;;;;14.60;91.10;;;;;;5020775;28;19924;-78
2023/10/14 02:25:15;;;;;;;;;;;14.60;91.10;;;;;;5024532;28;19917;-78
2023/10/14 02:27:44;;;;;;;;;;;14.60;90.60;;;;;;5020168;28;19913;-79
2023/10/14 02:30:10;;;;;;;;;;;14.60;90.50;;;;;;5022361;28;19917;-78
2023/10/14 02:32:36;;;;;;;;;;;14.60;90.70;;;;;;5017190;28;19920;-77
2023/10/14 02:35:01;;;;;;;;;;;14.60;91.10;;;;;;5016869;28;20315;-79
2023/10/14 02:37:27;;;;;;;;;;;14.50;90.90;;;;;;5020715;28;19917;-78
2023/10/14 02:39:52;;;;;;;;;;;14.50;90.80;;;;;;5008573;28;19920;-77
2023/10/14 02:42:18;;;;;;;;;;;14.50;90.90;;;;;;5016221;28;20016;-77
2023/10/14 02:44:44;;;;;;;;;;;14.60;91.10;;;;;;5014031;28;20342;-79
2023/10/14 02:47:10;;;;;;;;;;;14.50;90.90;;;;;;5008613;28;20012;-79
2023/10/14 02:49:42;;;;;;;;;;;14.50;91.20;;;;;;5018726;28;19960;-79
2023/10/14 02:52:10;;;;;;;;;;;14.50;91.10;;;;;;5021605;28;19909;-79
2023/10/14 02:54:35;;;;;;;;;;;14.50;91.10;;;;;;5025073;28;20000;-77
2023/10/14 02:57:12;;;;;;;;;;;14.50;91.30;;;;;;5013794;28;19925;-78
2023/10/14 02:59:43;;;;;;;;;;;14.50;91.40;;;;;;5006964;28;19917;-78
2023/10/14 03:02:48;;;;;;;;;;;14.60;91.10;;;;;;5020972;28;19928;-77
2023/10/14 03:05:32;;;;;;;;;;;14.60;91.20;;;;;;5018691;28;19921;-79
2023/10/14 03:08:06;;;;;;;;;;;14.50;90.80;;;;;;5022589;28;20016;-79
2023/10/14 03:10:35;;;;;;;;;;;14.50;91.10;;;;;;5007574;28;20007;-77
2023/10/14 03:13:00;;;;;;;;;;;14.60;91.30;;;;;;5012686;28;19914;-79
2023/10/14 03:15:32;;;;;;;;;;;14.60;91.50;;;;;;5017528;28;19924;-79
2023/10/14 03:17:58;;;;;;;;;;;14.60;91.50;;;;;;5014261;28;19913;-80
2023/10/14 03:23:09;;;;;;;;;;;14.60;90.90;;;;;;5006128;28;19993;-79
2023/10/14 03:25:35;;;;;;;;;;;14.50;90.30;;;;;;5011549;28;19924;-82
2023/10/14 03:28:12;;;;;;;;;;;14.10;89.50;;;;;;5017826;28;19917;-83
2023/10/14 03:30:40;;;;;;;;;;;13.90;89.20;;;;;;5028545;28;19913;-83
2023/10/14 03:33:10;;;;;;;;;;;13.70;88.50;;;;;;5016487;28;19913;-81
2023/10/14 03:35:41;;;;;;;;;;;13.60;89.30;;;;;;5010568;28;20315;-85
2023/10/14 03:38:15;;;;;;;;;;;13.50;90.20;;;;;;5012574;28;20358;-83
2023/10/14 03:46:15;;;;;;;;;;;13.40;88.40;;;;;;5014826;28;19960;-88
2023/10/14 03:48:54;;;;;;;;;;;13.30;88.70;;;;;;5016225;28;19964;-87
2023/10/14 03:51:30;;;;;;;;;;;13.10;89.30;;;;;;5024456;28;19928;-84
2023/10/14 03:53:56;;;;;;;;;;;13.10;89.40;;;;;;5025130;28;20167;-85
2023/10/14 03:56:25;;;;;;;;;;;13.10;89.90;;;;;;5033148;28;19921;-83
2023/10/14 03:59:00;;;;;;;;;;;13.10;90.10;;;;;;5031461;28;19924;-83
2023/10/14 04:01:43;;;;;;;;;;;13.10;89.90;;;;;;5016949;28;19940;-86
2023/10/14 04:04:18;;;;;;;;;;;13.00;89.70;;;;;;5029631;28;19917;-87
2023/10/14 04:06:55;;;;;;;;;;;13.10;89.80;;;;;;5031182;28;19913;-85
2023/10/14 04:09:24;;;;;;;;;;;13.10;89.80;;;;;;5029952;28;19961;-87
2023/10/14 04:11:54;;;;;;;;;;;13.10;89.80;;;;;;5017056;28;19960;-83
2023/10/14 04:14:22;;;;;;;;;;;13.10;89.80;;;;;;5020399;28;20065;-83
2023/10/14 04:16:49;;;;;;;;;;;13.10;89.80;;;;;;5024680;28;19917;-81
2023/10/14 04:19:28;;;;;;;;;;;13.00;89.80;;;;;;5019980;28;20382;-80
2023/10/14 04:21:59;;;;;;;;;;;13.10;89.80;;;;;;5020220;28;19917;-83
2023/10/14 04:27:16;;;;;;;;;;;13.00;90.50;;;;;;5004367;28;19921;-85
2023/10/14 04:29:39;;;;;;;;;;;13.10;90.00;;;;;;4998676;28;20323;-83
2023/10/14 04:32:14;;;;;;;;;;;13.20;89.90;;;;;;5005134;28;19917;-82
2023/10/14 04:34:46;;;;;;;;;;;13.20;89.00;;;;;;5023298;28;19943;-83
2023/10/14 04:37:20;;;;;;;;;;;13.20;88.80;;;;;;5015538;28;19960;-84
2023/10/14 04:39:45;;;;;;;;;;;13.10;88.40;;;;;;5018192;28;19997;-87
2023/10/14 04:42:22;;;;;;;;;;;13.10;88.90;;;;;;5010712;28;19929;-88
2023/10/14 04:44:59;;;;;;;;;;;13.10;88.80;;;;;;5004763;28;20027;-85
2023/10/14 04:47:36;;;;;;;;;;;13.10;89.50;;;;;;5004307;28;19929;-86
2023/10/14 04:50:10;;;;;;;;;;;13.10;88.80;;;;;;5011227;28;19913;-86
2023/10/14 04:52:36;;;;;;;;;;;13.10;88.80;;;;;;5014444;28;19920;-85
2023/10/14 04:58:12;;;;;;;;;;;13.00;88.10;;;;;;5009265;28;20044;-86
2023/10/14 05:00:38;;;;;;;;;;;13.00;88.20;;;;;;5014915;28;19940;-85
2023/10/14 05:03:05;;;;;;;;;;;12.90;89.50;;;;;;5032066;28;19917;-87
2023/10/14 05:05:36;;;;;;;;;;;12.80;89.80;;;;;;5011912;28;20303;-85
2023/10/14 05:08:05;;;;;;;;;;;12.80;89.40;;;;;;5010715;28;19924;-86
2023/10/14 05:10:33;;;;;;;;;;;12.80;89.30;;;;;;5032030;28;19920;-86
2023/10/14 05:13:09;;;;;;;;;;;12.70;89.30;;;;;;5016454;28;20413;-86
2023/10/14 05:15:41;;;;;;;;;;;12.80;89.40;;;;;;5015333;28;19933;-86
2023/10/14 05:18:14;;;;;;;;;;;12.80;89.40;;;;;;5036102;28;20383;-86
2023/10/14 05:23:24;;;;;;;;;;;12.70;89.80;;;;;;5014461;28;19961;-86
2023/10/14 05:25:56;;;;;;;;;;;12.70;89.90;;;;;;5021556;28;19986;-86
2023/10/14 05:28:29;;;;;;;;;;;12.70;89.60;;;;;;5017816;28;20018;-86
2023/10/14 05:31:01;;;;;;;;;;;12.60;89.30;;;;;;5014504;28;19909;-86
2023/10/14 05:33:34;;;;;;;;;;;12.60;89.50;;;;;;5017841;28;20004;-86
2023/10/14 05:36:09;;;;;;;;;;;12.60;89.40;;;;;;5009798;28;19914;-86
2023/10/14 05:38:34;;;;;;;;;;;12.60;89.10;;;;;;5008289;28;19913;-86
2023/10/14 05:41:01;;;;;;;;;;;12.60;88.80;;;;;;5013444;28;19982;-87
2023/10/14 05:43:31;;;;;;;;;;;12.60;88.90;;;;;;5006593;28;19921;-86
2023/10/14 05:46:00;;;;;;;;;;;12.50;89.00;;;;;;5007757;28;20298;-86
2023/10/14 05:48:36;;;;;;;;;;;12.50;89.20;;;;;;5007069;28;19914;-87
2023/10/14 05:51:09;;;;;;;;;;;12.50;88.90;;;;;;5017334;28;19913;-86
2023/10/14 05:53:35;;;;;;;;;;;12.50;89.00;;;;;;5018461;28;19913;-85
2023/10/14 05:56:12;;;;;;;;;;;12.40;89.10;;;;;;5009732;28;20383;-86
2023/10/14 05:58:38;;;;;;;;;;;12.40;89.20;;;;;;5002805;28;19921;-86
2023/10/14 06:01:10;;;;;;;;;;;12.40;89.40;;;;;;5006363;28;19913;-87
2023/10/14 06:03:37;;;;;;;;;;;12.30;89.30;;;;;;5009861;28;20302;-85
2023/10/14 06:06:09;;;;;;;;;;;12.30;89.10;;;;;;5010140;28;19917;-85
2023/10/14 06:08:40;;;;;;;;;;;12.30;89.20;;;;;;5012593;28;20361;-85
2023/10/14 06:11:06;;;;;;;;;;;12.30;89.30;;;;;;5009765;28;19919;-85
2023/10/14 06:13:37;;;;;;;;;;;12.30;89.10;;;;;;5011787;28;19913;-86
2023/10/14 06:16:12;;;;;;;;;;;12.30;89.00;;;;;;5011899;28;19940;-85
2023/10/14 06:18:38;;;;;;;;;;;12.30;88.80;;;;;;5010557;28;20338;-86
2023/10/14 06:21:06;;;;;;;;;;;12.30;89.00;;;;;;5005798;28;19976;-85
2023/10/14 06:23:32;;;;;;;;;;;12.20;88.80;;;;;;5013012;28;19924;-85
2023/10/14 06:26:05;;;;;;;;;;;12.30;88.40;;;;;;5014182;28;19917;-86
2023/10/14 06:28:32;;;;;;;;;;;12.30;87.90;;;;;;5011180;28;19913;-85
2023/10/14 06:31:00;;;;;;;;;;;12.30;87.80;;;;;;5007563;28;19922;-85
2023/10/14 06:33:26;;;;;;;;;;;12.30;87.90;;;;;;5006770;28;20443;-85
2023/10/14 06:35:52;;;;;;;;;;;12.30;87.70;;;;;;5007166;28;19913;-84
2023/10/14 06:38:19;;;;;;;;;;;12.30;87.60;;;;;;5010265;28;20364;-85
2023/10/14 06:40:54;;;;;;;;;;;12.30;87.10;;;;;;5014870;28;19965;-85
2023/10/14 06:43:22;;;;;;;;;;;12.30;87.10;;;;;;5012840;28;19999;-85
2023/10/14 06:45:51;;;;;;;;;;;12.30;87.50;;;;;;5001326;28;20510;-85
2023/10/14 06:48:16;;;;;;;;;;;12.30;87.80;;;;;;5007306;28;19914;-85
2023/10/14 06:50:42;;;;;;;;;;;12.30;88.30;;;;;;5008144;28;19914;-86
2023/10/14 06:53:08;;;;;;;;;;;12.50;87.70;;;;;;5004066;28;19922;-85
2023/10/14 06:55:40;;;;;;;;;;;12.50;86.30;;;;;;5003730;28;20409;-86
2023/10/14 06:58:11;;;;;;;;;;;12.30;86.30;;;;;;5007136;28;20415;-86
2023/10/14 07:00:45;;;;;;;;;;;12.40;86.70;;;;;;5016379;28;20283;-87
2023/10/14 07:03:16;;;;;;;;;;;12.30;87.20;;;;;;5010957;28;19925;-85
2023/10/14 07:05:43;;;;;;;;;;;12.30;87.30;;;;;;5008327;28;20036;-84
2023/10/14 07:08:12;;;;;;;;;;;12.30;88.00;;;;;;5010181;28;19949;-86
2023/10/14 07:10:38;;;;;;;;;;;12.30;87.90;;;;;;5019688;28;19925;-86
2023/10/14 07:13:06;;;;;;;;;;;12.30;87.80;;;;;;5010569;28;19921;-86
2023/10/14 07:15:35;;;;;;;;;;;12.40;87.30;;;;;;5006339;28;19917;-85
2023/10/14 07:18:01;;;;;;;;;;;12.30;87.10;;;;;;5025502;28;20302;-86
2023/10/14 07:20:30;;;;;;;;;;;12.40;87.30;;;;;;5019737;28;19910;-86
2023/10/14 07:23:04;;;;;;;;;;;12.40;87.90;;;;;;5010887;28;20371;-86
2023/10/14 07:25:34;;;;;;;;;;;12.40;87.40;;;;;;5009782;28;19913;-86
2023/10/14 07:28:17;;;;;;;;;;;12.40;87.00;;;;;;5024748;28;19964;-86
2023/10/14 07:30:51;;;;;;;;;;;12.50;87.40;;;;;;5012997;28;19967;-85
2023/10/14 07:33:22;;;;;;;;;;;12.40;87.00;;;;;;5013825;28;20342;-86
2023/10/14 07:35:47;;;;;;;;;;;12.50;87.20;;;;;;5022290;28;19923;-86
2023/10/14 07:38:22;;;;;;;;;;;12.50;86.40;;;;;;5017048;28;20395;-86
2023/10/14 07:40:49;;;;;;;;;;;12.50;86.40;;;;;;5021289;28;19913;-86
2023/10/14 07:43:19;;;;;;;;;;;12.50;85.90;;;;;;5018106;28;19913;-89
2023/10/14 07:45:55;;;;;;;;;;;12.50;85.20;;;;;;5011886;28;19953;-86
2023/10/14 07:48:23;;;;;;;;;;;12.60;85.70;;;;;;5009541;28;19964;-85
2023/10/14 07:51:06;;;;;;;;;;;12.60;86.10;;;;;;5015863;28;20382;-87
2023/10/14 07:53:39;;;;;;;;;;;12.50;84.80;;;;;;5010978;28;19913;-88
2023/10/14 07:56:08;;;;;;;;;;;12.50;85.30;;;;;;5007454;28;19952;-86
2023/10/14 07:58:37;;;;;;;;;;;12.50;85.30;;;;;;5012638;28;19961;-87
2023/10/14 08:01:15;;;;;;;;;;;12.60;85.40;;;;;;5006700;28;19914;-87
2023/10/14 08:04:07;;;;;;;;;;;12.60;84.90;;;;;;5010549;28;19969;-87
2023/10/14 08:06:40;;;;;;;;;;;12.70;84.60;;;;;;5020925;28;19914;-85
2023/10/14 08:09:14;;;;;;;;;;;12.80;84.80;;;;;;5031165;28;19919;-85
2023/10/14 08:11:45;;;;;;;;;;;12.70;84.40;;;;;;5031142;28;19913;-87
2023/10/14 08:14:11;;;;;;;;;;;12.80;84.00;;;;;;5035078;28;19977;-85
2023/10/14 08:16:45;;;;;;;;;;;12.70;84.00;;;;;;5036460;28;19905;-85
2023/10/14 08:19:11;;;;;;;;;;;12.70;84.40;;;;;;5029770;28;19917;-86
2023/10/14 08:21:40;;;;;;;;;;;12.60;84.90;;;;;;5035193;28;19914;-86
2023/10/14 08:24:05;;;;;;;;;;;12.70;85.00;;;;;;5030250;28;20012;-86
2023/10/14 08:26:42;;;;;;;;;;;12.80;83.30;;;;;;5027477;28;19914;-85
2023/10/14 08:29:07;;;;;;;;;;;12.90;83.80;;;;;;5011054;28;19925;-86
2023/10/14 08:31:42;;;;;;;;;;;12.90;83.50;;;;;;5020360;28;19913;-86
2023/10/14 08:34:09;;;;;;;;;;;12.90;82.40;;;;;;5022114;28;19929;-87
2023/10/14 08:36:43;;;;;;;;;;;12.90;82.30;;;;;;5008842;28;19914;-86
2023/10/14 08:39:09;;;;;;;;;;;12.90;82.60;;;;;;5023257;28;19909;-86
2023/10/14 08:41:47;;;;;;;;;;;12.90;83.00;;;;;;5032109;28;20481;-87
2023/10/14 08:44:18;;;;;;;;;;;12.90;82.90;;;;;;5035822;28;19981;-88
2023/10/14 08:46:44;;;;;;;;;;;13.00;82.50;;;;;;5019974;28;19917;-87
2023/10/14 08:49:12;;;;;;;;;;;13.00;82.40;;;;;;5006856;28;19918;-87
2023/10/14 08:51:48;;;;;;;;;;;13.10;82.70;;;;;;5024123;28;19935;-86
2023/10/14 08:54:19;;;;;;;;;;;13.10;82.30;;;;;;5014113;28;19913;-87
2023/10/14 08:56:56;;;;;;;;;;;13.10;82.20;;;;;;5009643;28;20457;-87
2023/10/14 08:59:22;;;;;;;;;;;13.20;81.30;;;;;;5024148;28;19913;-87
2023/10/14 09:01:54;;;;;;;;;;;13.20;81.70;;;;;;5014610;28;19914;-85
2023/10/14 09:04:31;;;;;;;;;;;13.20;81.70;;;;;;5016999;28;19929;-88
2023/10/14 09:07:02;;;;;;;;;;;13.40;80.00;;;;;;5023518;28;19909;-89
2023/10/14 09:09:56;;;;;;;;;;;13.40;80.80;;;;;;5014596;28;19913;-86
2023/10/14 09:12:22;;;;;;;;;;;13.30;81.00;;;;;;5012508;28;19913;-88
2023/10/14 09:17:55;;;;;;;;;;;13.70;79.40;;;;;;5014786;28;19917;-87
2023/10/14 09:20:28;;;;;;;;;;;13.90;78.50;;;;;;5015282;28;19913;-87
2023/10/14 09:26:46;;;;;;;;;;;;;;;;;;;;;
2023/10/14 09:29:14;;;;;;;;;;;14.10;77.00;;;;;;5010925;28;19914;-87
2023/10/14 09:31:47;;;;;;;;;;;14.10;77.40;;;;;;5024082;28;19913;-87
2023/10/14 09:34:24;;;;;;;;;;;14.10;77.10;;;;;;5007619;28;19916;-87
2023/10/14 09:37:03;;;;;;;;;;;14.10;77.40;;;;;;5012256;28;19976;-88
2023/10/14 09:39:48;;;;;;;;;;;14.10;76.60;;;;;;5019449;28;20012;-85
2023/10/14 09:42:20;;;;;;;;;;;14.30;75.90;;;;;;5019477;28;19917;-86
2023/10/14 09:44:47;;;;;;;;;;;14.30;74.10;;;;;;5029345;22;19944;-85
2023/10/14 09:47:14;;;;;;;;;;;14.20;74.60;;;;;;5041411;28;19918;-85
2023/10/14 09:49:41;;;;;;;;;;;14.10;72.00;;;;;;5045033;28;19912;-85
2023/10/14 09:52:07;;;;;;;;;;;14.00;73.00;;;;;;5057267;28;19913;-85
2023/10/14 09:54:34;;;;;;;;;;;13.80;73.10;;;;;;5044801;28;19923;-85
2023/10/14 09:57:00;;;;;;;;;;;13.70;71.70;;;;;;5047367;28;19916;-85
2023/10/14 09:59:28;;;;;;;;;;;13.70;73.30;;;;;;5043025;28;20027;-84
2023/10/14 10:01:53;;;;;;;;;;;13.70;70.80;;;;;;5047351;28;19909;-85
2023/10/14 10:04:21;;;;;;;;;;;13.60;71.90;;;;;;5038027;28;20016;-84
2023/10/14 10:06:48;;;;;;;;;;;13.50;72.80;;;;;;5049334;28;19909;-85
2023/10/14 10:09:23;;;;;;;;;;;13.60;72.80;;;;;;5039094;28;20012;-85
2023/10/14 10:11:53;;;;;;;;;;;13.70;70.60;;;;;;5035102;28;19913;-85
2023/10/14 10:14:22;;;;;;;;;;;13.80;71.30;;;;;;5057200;28;19910;-85
2023/10/14 10:16:50;;;;;;;;;;;13.80;71.80;;;;;;5050694;28;20259;-85
2023/10/14 10:19:16;;;;;;;;;;;13.80;70.40;;;;;;5036135;28;19913;-84
2023/10/14 10:22:02;;;;;;;;;;;13.80;70.00;;;;;;5041557;28;19909;-85
2023/10/14 10:24:40;;;;;;;;;;;13.80;69.70;;;;;;5035857;28;19917;-85
2023/10/14 10:27:06;;;;;;;;;;;14.00;71.90;;;;;;5032036;28;20374;-85
2023/10/14 10:29:34;;;;;;;;;;;14.00;70.40;;;;;;5034519;28;19924;-84
2023/10/14 10:32:26;;;;;;;;;;;14.10;71.70;;;;;;5038848;28;19939;-84
2023/10/14 10:35:06;;;;;;;;;;;14.10;70.00;;;;;;5039404;28;19909;-84
2023/10/14 10:37:41;;;;;;;;;;;14.30;69.60;;;;;;5037930;28;19913;-84
2023/10/14 10:40:10;;;;;;;;;;;14.40;69.40;;;;;;5043461;28;20624;-85
2023/10/14 10:42:41;;;;;;;;;;;14.30;69.70;;;;;;5039409;28;19921;-84
2023/10/14 10:45:20;;;;;;;;;;;14.50;69.30;;;;;;5049935;28;19917;-85
2023/10/14 10:47:56;;;;;;;;;;;14.60;70.60;;;;;;5045863;28;19913;-86
2023/10/14 10:50:26;;;;;;;;;;;14.70;69.20;;;;;;5043489;28;19915;-84
2023/10/14 10:53:11;;;;;;;;;;;14.90;69.60;;;;;;5040395;28;20310;-85
2023/10/14 10:55:37;;;;;;;;;;;14.90;68.30;;;;;;5032896;28;19913;-85
2023/10/14 10:58:03;;;;;;;;;;;14.80;68.90;;;;;;5047775;28;19913;-85
2023/10/14 11:00:30;;;;;;;;;;;14.70;68.30;;;;;;5040039;28;19921;-85
2023/10/14 11:02:56;;;;;;;;;;;14.70;68.60;;;;;;5036681;28;19923;-84
2023/10/14 11:05:24;;;;;;;;;;;14.80;69.00;;;;;;5044064;28;19909;-85
2023/10/14 11:07:52;;;;;;;;;;;15.00;67.80;;;;;;5038484;28;20003;-85
2023/10/14 11:10:21;;;;;;;;;;;15.00;67.60;;;;;;5037819;28;19913;-84
2023/10/14 11:12:46;;;;;;;;;;;14.90;66.60;;;;;;5045083;28;19913;-85
2023/10/14 11:15:21;;;;;;;;;;;14.80;67.10;;;;;;5046219;28;19928;-84
2023/10/14 11:17:51;;;;;;;;;;;14.60;67.60;;;;;;5028481;28;19932;-85
2023/10/14 11:20:17;;;;;;;;;;;14.60;68.30;;;;;;5039468;28;19940;-84
2023/10/14 11:22:43;;;;;;;;;;;14.80;68.30;;;;;;5039035;28;19917;-84
2023/10/14 11:25:10;;;;;;;;;;;14.90;66.50;;;;;;5033686;28;20011;-84
2023/10/14 11:27:36;;;;;;;;;;;14.90;66.00;;;;;;5045292;28;19921;-84
2023/10/14 11:30:01;;;;;;;;;;;14.80;64.90;;;;;;5040592;28;19930;-84
2023/10/14 11:32:27;;;;;;;;;;;14.90;63.50;;;;;;5045653;28;20298;-85
2023/10/14 11:34:52;;;;;;;;;;;15.00;63.50;;;;;;5039192;28;19913;-85
2023/10/14 11:37:18;;;;;;;;;;;15.10;64.60;;;;;;5036108;28;19913;-84
2023/10/14 11:39:45;;;;;;;;;;;15.30;64.90;;;;;;5040607;28;20450;-84
2023/10/14 11:42:12;;;;;;;;;;;15.30;64.50;;;;;;5042524;28;19909;-84
2023/10/14 11:44:38;;;;;;;;;;;15.20;61.90;;;;;;5045967;28;20401;-84
2023/10/14 11:47:16;;;;;;;;;;;15.10;61.20;;;;;;5034640;28;19917;-84
2023/10/14 11:49:46;;;;;;;;;;;15.00;60.60;;;;;;5047002;28;19909;-85
2023/10/14 11:52:11;;;;;;;;;;;15.00;59.50;;;;;;5056730;28;19901;-85
2023/10/14 11:54:41;;;;;;;;;;;15.10;61.90;;;;;;5055784;28;19999;-85
2023/10/14 11:57:07;;;;;;;;;;;15.20;61.40;;;;;;5047676;28;19921;-85
2023/10/14 11:59:33;;;;;;;;;;;15.20;59.70;;;;;;5048454;28;19913;-84
2023/10/14 12:01:58;;;;;;;;;;;15.30;61.80;;;;;;5049339;28;19932;-84
2023/10/14 12:04:24;;;;;;;;;;;15.30;61.30;;;;;;5057511;28;19982;-84
2023/10/14 12:06:49;;;;;;;;;;;15.30;60.00;;;;;;5039480;28;20433;-85
2023/10/14 12:09:16;;;;;;;;;;;15.30;60.40;;;;;;5047545;28;20391;-84
2023/10/14 12:11:42;;;;;;;;;;;15.40;60.30;;;;;;5038618;28;19913;-85
2023/10/14 12:14:10;;;;;;;;;;;15.50;60.40;;;;;;5048402;28;19917;-85
2023/10/14 12:16:36;;;;;;;;;;;15.70;58.60;;;;;;5056003;28;19915;-84
2023/10/14 12:19:02;;;;;;;;;;;15.70;58.10;;;;;;5044806;28;19941;-84
2023/10/14 12:21:27;;;;;;;;;;;15.60;59.40;;;;;;5036827;28;19920;-85
2023/10/14 12:23:55;;;;;;;;;;;15.50;59.80;;;;;;5039224;28;19917;-85
2023/10/14 12:26:20;;;;;;;;;;;15.40;59.50;;;;;;5033646;28;20000;-84
2023/10/14 12:28:48;;;;;;;;;;;15.40;59.40;;;;;;5038696;28;20011;-84
2023/10/14 12:31:14;;;;;;;;;;;15.50;60.00;;;;;;5047152;28;19897;-85
2023/10/14 12:33:41;;;;;;;;;;;15.50;57.90;;;;;;5055610;28;19942;-85
2023/10/14 12:36:14;;;;;;;;;;;15.40;58.80;;;;;;5031434;28;19917;-85
2023/10/14 12:38:42;;;;;;;;;;;15.60;56.20;;;;;;5040875;28;20370;-84
2023/10/14 12:41:08;;;;;;;;;;;15.60;56.50;;;;;;5034679;28;19919;-84
2023/10/14 12:43:37;;;;;;;;;;;15.70;57.40;;;;;;5040651;28;20294;-85
2023/10/14 12:46:14;;;;;;;;;;;15.60;56.10;;;;;;5034567;28;19917;-85
2023/10/14 12:48:40;;;;;;;;;;;15.60;56.40;;;;;;5035550;28;20088;-85
2023/10/14 12:51:07;;;;;;;;;;;15.50;56.10;;;;;;5041886;28;20256;-85
2023/10/14 12:53:33;;;;;;;;;;;15.50;56.50;;;;;;5040106;28;19916;-84
2023/10/14 12:55:59;;;;;;;;;;;15.50;56.10;;;;;;5047871;28;20382;-84
2023/10/14 12:58:25;;;;;;;;;;;15.40;57.20;;;;;;5042745;28;20274;-84
2023/10/14 13:00:50;;;;;;;;;;;15.30;58.80;;;;;;5036527;28;19918;-85
2023/10/14 13:03:17;;;;;;;;;;;15.20;56.80;;;;;;5046559;28;20306;-85
2023/10/14 13:05:46;;;;;;;;;;;15.00;57.40;;;;;;5035318;28;19958;-84
2023/10/14 13:08:15;;;;;;;;;;;14.90;57.80;;;;;;5034446;28;19923;-85
2023/10/14 13:10:40;;;;;;;;;;;14.80;58.80;;;;;;5043535;28;19913;-85
2023/10/14 13:13:06;;;;;;;;;;;14.80;59.00;;;;;;5048009;28;19916;-86
2023/10/14 13:15:35;;;;;;;;;;;14.80;56.90;;;;;;5041731;28;19936;-85
2023/10/14 13:18:02;;;;;;;;;;;14.80;56.30;;;;;;5044492;28;19924;-85
2023/10/14 13:20:28;;;;;;;;;;;14.80;55.50;;;;;;5038312;28;19982;-85
2023/10/14 13:22:55;;;;;;;;;;;14.70;54.40;;;;;;5036596;28;19917;-84
2023/10/14 13:25:22;;;;;;;;;;;14.70;54.40;;;;;;5029535;28;21973;-84
2023/10/14 13:27:51;;;;;;;;;;;14.60;55.10;;;;;;5044814;28;19968;-85
2023/10/14 13:30:18;;;;;;;;;;;14.70;54.00;;;;;;5039865;28;19959;-85
2023/10/14 13:32:44;;;;;;;;;;;14.70;52.50;;;;;;5036976;28;20053;-85
2023/10/14 13:35:09;;;;;;;;;;;14.80;52.20;;;;;;5040196;28;19918;-85
2023/10/14 13:37:35;;;;;;;;;;;14.80;52.20;;;;;;5044059;28;19913;-85
2023/10/14 13:40:00;;;;;;;;;;;14.80;52.20;;;;;;5040688;28;19912;-85
2023/10/14 13:42:26;;;;;;;;;;;14.80;52.60;;;;;;5048987;28;19912;-85
2023/10/14 13:44:51;;;;;;;;;;;14.80;53.20;;;;;;5034131;28;20286;-85
2023/10/14 13:47:17;;;;;;;;;;;14.80;51.60;;;;;;5047583;28;20267;-85
2023/10/14 13:49:45;;;;;;;;;;;14.70;51.50;;;;;;5048906;28;19915;-85
2023/10/14 13:52:16;;;;;;;;;;;14.70;50.40;;;;;;5040481;28;19947;-84
2023/10/14 13:54:45;;;;;;;;;;;14.70;51.20;;;;;;5046028;28;19913;-84
2023/10/14 13:57:11;;;;;;;;;;;14.60;51.90;;;;;;5045946;28;19912;-85
2023/10/14 13:59:38;;;;;;;;;;;14.60;51.80;;;;;;5039299;28;19948;-86
2023/10/14 14:02:03;;;;;;;;;;;14.50;51.70;;;;;;5039682;28;19976;-85
2023/10/14 14:04:32;;;;;;;;;;;14.40;53.40;;;;;;5040786;28;20373;-86
2023/10/14 14:07:06;;;;;;;;;;;14.40;54.50;;;;;;5037741;28;19979;-85
2023/10/14 14:09:31;;;;;;;;;;;14.50;54.20;;;;;;5032213;28;19909;-85
2023/10/14 14:11:57;;;;;;;;;;;14.60;53.80;;;;;;5052877;28;20289;-85
2023/10/14 14:14:22;;;;;;;;;;;14.50;54.70;;;;;;5045140;28;19920;-85
2023/10/14 14:16:51;;;;;;;;;;;14.50;55.80;;;;;;5051722;28;19920;-85
2023/10/14 14:19:19;;;;;;;;;;;14.50;55.00;;;;;;5045698;28;19913;-85
2023/10/14 14:21:47;;;;;;;;;;;14.60;55.00;;;;;;5048736;28;19913;-85
2023/10/14 14:24:12;;;;;;;;;;;14.60;55.00;;;;;;5044334;28;19925;-85
2023/10/14 14:26:38;;;;;;;;;;;14.50;55.40;;;;;;5049656;28;19919;-85
2023/10/14 14:29:03;;;;;;;;;;;14.50;55.50;;;;;;5050103;28;20315;-86
2023/10/14 14:31:30;;;;;;;;;;;14.50;55.40;;;;;;5043466;28;20326;-85
2023/10/14 14:33:56;;;;;;;;;;;14.50;55.20;;;;;;5056397;28;20286;-85
2023/10/14 14:36:22;;;;;;;;;;;14.50;56.00;;;;;;5055941;28;19924;-84
2023/10/14 14:38:47;;;;;;;;;;;14.50;56.00;;;;;;5050245;28;19913;-85
2023/10/14 14:41:18;;;;;;;;;;;14.50;55.90;;;;;;5053971;28;20357;-85
2023/10/14 14:43:44;;;;;;;;;;;14.50;56.10;;;;;;5048969;28;19913;-85
2023/10/14 14:46:11;;;;;;;;;;;14.50;56.70;;;;;;5046244;28;19917;-85
2023/10/14 14:48:37;;;;;;;;;;;14.50;56.20;;;;;;5055740;28;19959;-85
2023/10/14 14:51:03;;;;;;;;;;;14.50;56.20;;;;;;5059648;28;19905;-86
2023/10/14 14:53:30;;;;;;;;;;;14.50;55.90;;;;;;5058447;28;19951;-84
2023/10/14 14:55:56;;;;;;;;;;;14.50;56.60;;;;;;5066745;28;20181;-84
2023/10/14 14:58:22;;;;;;;;;;;14.40;58.20;;;;;;5052449;28;19941;-84
2023/10/14 15:00:48;;;;;;;;;;;14.30;57.20;;;;;;5045876;28;19952;-85
2023/10/14 15:03:14;;;;;;;;;;;14.40;59.20;;;;;;5048925;28;20128;-84
2023/10/14 15:05:41;;;;;;;;;;;14.30;58.90;;;;;;5027926;28;19914;-84
2023/10/14 15:08:10;;;;;;;;;;;14.30;60.30;;;;;;5033567;28;19917;-85